Hauptseite
METAR-TAF:

METAR-TAF

Flughäfen :

Bedford, Pennsylvania, Vereinigte Staaten

Breite: 40-05-10N, Länge: 078-30-49W, Höhe: 354 m

Beobachtung

Neuester Wetterbericht von vor 32 Minuten, um 02:10 UTC
Windstille
Temperatur -1°C
Luftfeuchtigkeit 64%
Luftdruck 1022 hPa
Sichtweite: 16.1 km
Geschlossene Wolkendecke in der Höhe von 3500 ft

METAR: KHMZ 160210Z AUTO 00000KT 10SM OVC035 M01/M07 A3017 RMK AO2 T10061075

Zeit: 21:42 (02:42 UTC)


TAF: fehlend

Wetterbeobachtungen und Prognosen von mehr als 4000 Flughäfen (METAR und TAF Bericht).

Die verfügbaren Stationen werden durch gelbe und rote Markierungen auf der Karte dargestellt.

Führen Sie die Maus auf sie, um den Namen der Station zu sehen.

Darauf klicken, um die Beobachtung von Wetterbeobachtungen und Prognosen zu sehen.

Um die Karte zu ändern : klicken Sie auf den grünen Tasten mit einem schwarzen Kreuz Zum Vergrößern, auf den grünen Button mit einem Gedankenstrich zu verkleinern, oder auf die grünen Pfeile für benachbarte Karten.


METAR-TAF: